Time;durP1;ratioP1;P1;durP2;ratioP2;P2;SDS_P1;SDS_P2;PMS_P1;PMS_P2;Temp;Humidity;BMP_temperature;BMP_pressure;BME280_temperature;BME280_humidity;BME280_pressure;Samples;Min_cycle;Max_cycle;Signal;HPM_P1;HPM_P2
2023/05/27 00:01:28;;;;;;;12.30;4.00;;;;;;;9.73;65.37;101674.77;105499;1257;69211;-60
2023/05/27 00:03:57;;;;;;;18.80;4.30;;;;;;;9.69;65.24;101672.02;105430;1257;69095;-64
2023/05/27 00:06:29;;;;;;;16.50;4.60;;;;;;;9.67;65.50;101671.35;105508;1256;74888;-62
2023/05/27 00:09:01;;;;;;;11.70;3.90;;;;;;;9.65;65.59;101668.94;105459;1254;83504;-62
2023/05/27 00:11:32;;;;;;;15.40;4.60;;;;;;;9.59;65.61;101668.30;105470;1254;73868;-59
2023/05/27 00:14:04;;;;;;;14.30;4.00;;;;;;;9.52;65.74;101672.76;105457;1257;69141;-60
2023/05/27 00:16:38;;;;;;;17.60;4.20;;;;;;;9.46;66.03;101672.83;105486;1257;69292;-62
2023/05/27 00:19:10;;;;;;;14.00;4.20;;;;;;;9.36;66.16;101671.38;105451;1257;74924;-60
2023/05/27 00:21:45;;;;;;;17.00;4.40;;;;;;;9.30;66.46;101662.73;105482;1257;83353;-62
2023/05/27 00:24:16;;;;;;;15.90;3.90;;;;;;;9.27;66.66;101662.07;105452;1257;73745;-62
2023/05/27 00:26:48;;;;;;;12.80;4.60;;;;;;;9.22;66.62;101660.39;105560;1257;69158;-64
2023/05/27 00:29:24;;;;;;;14.30;3.70;;;;;;;9.18;66.92;101663.21;105486;1257;69218;-62
2023/05/27 00:31:56;;;;;;;14.80;4.50;;;;;;;9.13;66.88;101664.14;105421;1254;73923;-63
2023/05/27 00:34:28;;;;;;;21.50;5.10;;;;;;;9.09;67.25;101663.48;105497;1254;83472;-63
2023/05/27 00:37:02;;;;;;;17.50;4.60;;;;;;;9.07;67.48;101660.89;105478;1254;72810;-62
2023/05/27 00:39:39;;;;;;;16.10;4.70;;;;;;;9.04;67.55;101660.92;105533;1257;69217;-60
2023/05/27 00:42:11;;;;;;;11.80;3.70;;;;;;;9.01;67.72;101659.74;105420;1254;69105;-61
2023/05/27 00:44:44;;;;;;;12.70;4.10;;;;;;;8.97;67.89;101662.91;105392;1260;75061;-62
2023/05/27 00:47:16;;;;;;;14.70;4.30;;;;;;;8.92;67.76;101662.44;105519;1256;83510;-61
2023/05/27 00:49:51;;;;;;;21.50;6.00;;;;;;;8.89;67.90;101663.17;105426;1254;74415;-60
2023/05/27 00:52:23;;;;;;;11.90;4.60;;;;;;;8.83;67.95;101664.29;105393;1254;69174;-62
2023/05/27 00:54:59;;;;;;;12.10;4.20;;;;;;;8.79;68.19;101661.34;105482;1260;69224;-62
2023/05/27 00:57:31;;;;;;;15.60;4.50;;;;;;;8.75;68.39;101659.47;105465;1257;73874;-60
2023/05/27 01:00:10;;;;;;;14.50;4.10;;;;;;;8.70;68.29;101662.13;105535;1254;83606;-64
2023/05/27 01:02:48;;;;;;;13.50;4.20;;;;;;;8.64;68.46;101665.84;105480;1254;73793;-63
2023/05/27 01:05:21;;;;;;;16.70;4.50;;;;;;;8.57;68.53;101663.12;105505;1258;69125;-62
2023/05/27 01:08:01;;;;;;;12.90;5.00;;;;;;;8.49;68.93;101659.70;105503;1254;69049;-60
2023/05/27 01:10:54;;;;;;;17.60;4.40;;;;;;;8.45;69.13;101662.69;105459;1256;73141;-60
2023/05/27 01:13:42;;;;;;;15.40;4.40;;;;;;;8.40;69.27;101663.25;105523;1257;82249;-61
2023/05/27 01:16:24;;;;;;;15.20;3.60;;;;;;;8.29;69.36;101666.10;105390;1259;71689;-62
2023/05/27 01:18:59;;;;;;;14.70;4.30;;;;;;;8.19;69.43;101666.67;105465;1261;69247;-61
2023/05/27 01:21:36;;;;;;;11.00;4.10;;;;;;;8.10;69.44;101664.66;105476;1254;69154;-60
2023/05/27 01:24:16;;;;;;;16.80;4.30;;;;;;;8.03;69.91;101664.34;105403;1254;75021;-62
2023/05/27 01:26:47;;;;;;;12.60;3.70;;;;;;;8.00;70.22;101664.72;105459;1257;83514;-62
2023/05/27 01:29:31;;;;;;;13.40;4.00;;;;;;;7.97;70.00;101663.16;105403;1254;73708;-62
2023/05/27 01:32:20;;;;;;;16.70;4.70;;;;;;;7.96;70.67;101664.23;105405;1254;69143;-61
2023/05/27 01:35:02;;;;;;;14.30;4.10;;;;;;;7.94;70.68;101663.88;105435;1253;69077;-62
2023/05/27 01:37:42;;;;;;;10.80;4.30;;;;;;;7.90;70.79;101665.64;105489;1257;74765;-61
2023/05/27 01:40:24;;;;;;;13.60;5.00;;;;;;;7.86;70.81;101666.53;105446;1254;82526;-62
2023/05/27 01:43:07;;;;;;;13.30;4.40;;;;;;;7.82;70.96;101663.08;105305;1255;73855;-61
2023/05/27 01:45:48;;;;;;;15.40;4.70;;;;;;;7.77;70.86;101666.06;105463;1257;69228;-60
2023/05/27 01:48:31;;;;;;;13.10;4.20;;;;;;;7.73;70.96;101664.35;105265;1259;69137;-60
2023/05/27 01:51:24;;;;;;;14.20;3.90;;;;;;;7.70;71.25;101666.10;105497;1254;73926;-61
2023/05/27 01:54:04;;;;;;;19.00;5.30;;;;;;;7.65;71.17;101665.43;105362;1257;82526;-60
2023/05/27 01:56:42;;;;;;;12.50;4.20;;;;;;;7.57;71.61;101661.63;105431;1254;72758;-62
2023/05/27 01:59:17;;;;;;;14.80;4.40;;;;;;;7.54;71.81;101659.91;105411;1257;69282;-61
2023/05/27 02:01:57;;;;;;;15.10;4.70;;;;;;;7.49;71.85;101662.55;105415;1260;69250;-61
2023/05/27 02:04:37;;;;;;;16.50;4.70;;;;;;;7.44;72.03;101655.95;105455;1257;74663;-60
2023/05/27 02:07:16;;;;;;;13.50;4.50;;;;;;;7.37;71.94;101654.92;105427;1257;83371;-60
2023/05/27 02:09:59;;;;;;;15.50;5.00;;;;;;;7.28;72.01;101654.27;105487;1257;73720;-64
2023/05/27 02:12:43;;;;;;;15.20;4.30;;;;;;;7.20;72.23;101655.86;105477;1257;69221;-61
2023/05/27 02:15:30;;;;;;;15.20;4.50;;;;;;;7.13;72.59;101652.75;105485;1260;69209;-61
2023/05/27 02:18:18;;;;;;;12.50;4.50;;;;;;;7.07;72.97;101661.98;105459;1255;73855;-61
2023/05/27 02:21:06;;;;;;;16.80;4.40;;;;;;;7.04;73.36;101662.69;105403;1260;83430;-62
2023/05/27 02:23:41;;;;;;;13.70;5.00;;;;;;;7.00;73.19;101664.61;105464;1257;73676;-60
2023/05/27 02:26:24;;;;;;;15.50;4.80;;;;;;;6.98;73.56;101664.77;105472;1254;69090;-61
2023/05/27 02:29:16;;;;;;;20.20;4.90;;;;;;;6.97;73.89;101665.98;105472;1254;69240;-64
2023/05/27 02:32:01;;;;;;;16.90;4.80;;;;;;;6.94;73.97;101663.57;105492;1254;74979;-60
2023/05/27 02:34:47;;;;;;;14.20;4.40;;;;;;;6.94;74.23;101667.74;105486;1254;83410;-61
2023/05/27 02:37:31;;;;;;;14.60;4.90;;;;;;;6.93;74.04;101669.83;105408;1254;73926;-61
2023/05/27 02:40:24;;;;;;;14.40;5.00;;;;;;;6.93;74.45;101675.22;105423;1257;69081;-62
2023/05/27 02:43:10;;;;;;;18.50;4.90;;;;;;;6.96;74.67;101674.52;105535;1254;69109;-61
2023/05/27 02:46:05;;;;;;;14.20;4.80;;;;;;;6.96;74.78;101676.61;105446;1256;73509;-62
2023/05/27 02:48:40;;;;;;;15.40;4.60;;;;;;;7.00;75.00;101678.51;105504;1254;82595;-61
2023/05/27 02:51:20;;;;;;;20.70;5.40;;;;;;;7.02;75.02;101675.90;105458;1254;73845;-64
2023/05/27 02:53:55;;;;;;;13.40;4.90;;;;;;;7.03;75.04;101679.71;105418;1258;69297;-62
2023/05/27 02:56:44;;;;;;;21.10;5.20;;;;;;;7.04;75.14;101681.45;105408;1259;69186;-61
2023/05/27 02:59:26;;;;;;;16.10;5.30;;;;;;;7.04;74.83;101683.20;105566;1254;74459;-60
2023/05/27 03:02:05;;;;;;;21.30;4.60;;;;;;;7.01;74.94;101687.36;105419;1258;83411;-60
2023/05/27 03:04:47;;;;;;;13.00;4.90;;;;;;;7.00;75.08;101683.55;105453;1257;72893;-66
2023/05/27 03:07:25;;;;;;;17.50;4.90;;;;;;;6.97;74.92;101688.93;105471;1254;69222;-62
2023/05/27 03:10:24;;;;;;;;;;;;;;;6.94;74.83;101683.05;105416;1254;69240;-62
2023/05/27 03:13:01;;;;;;;16.70;5.20;;;;;;;6.85;75.11;101683.23;105423;1253;73305;-60
2023/05/27 03:15:58;;;;;;;20.60;5.90;;;;;;;6.81;75.46;101684.96;105472;1257;83524;-62
2023/05/27 03:18:39;;;;;;;15.70;5.40;;;;;;;6.82;75.32;101684.09;105551;1259;74161;-60
2023/05/27 03:21:19;;;;;;;15.40;4.50;;;;;;;6.78;75.45;101682.02;105377;1254;69134;-62
2023/05/27 03:23:55;;;;;;;17.80;5.00;;;;;;;6.76;75.81;101681.85;105446;1253;69145;-62
2023/05/27 03:26:38;;;;;;;17.70;4.90;;;;;;;6.78;76.16;101685.14;105401;1254;74862;-64
2023/05/27 03:29:21;;;;;;;18.50;5.30;;;;;;;6.81;75.89;101687.23;105472;1253;82473;-67
2023/05/27 03:32:01;;;;;;;17.60;5.00;;;;;;;6.80;75.98;101689.84;105432;1254;73855;-64
2023/05/27 03:34:43;;;;;;;19.10;5.10;;;;;;;6.83;76.35;101690.01;105469;1254;69232;-65
2023/05/27 03:37:27;;;;;;;16.20;5.30;;;;;;;6.88;76.53;101692.23;105464;1254;69218;-64
2023/05/27 03:40:15;;;;;;;18.80;5.00;;;;;;;6.89;76.29;101694.85;105425;1254;73777;-61
2023/05/27 03:42:52;;;;;;;17.50;4.90;;;;;;;6.93;76.70;101700.77;105521;1254;82924;-62
2023/05/27 03:45:40;;;;;;;17.20;5.00;;;;;;;6.98;76.59;101701.62;105534;1257;72140;-66
2023/05/27 03:48:22;;;;;;;22.20;5.80;;;;;;;7.04;76.99;101703.35;105397;1254;69096;-61
2023/05/27 03:51:02;;;;;;;21.90;5.40;;;;;;;7.11;76.87;101708.38;105219;1254;69094;-61
2023/05/27 03:53:37;;;;;;;18.30;5.30;;;;;;;7.19;77.05;101704.89;105295;1258;75081;-60
2023/05/27 03:56:23;;;;;;;19.00;5.50;;;;;;;7.26;76.97;101706.27;105526;1257;82640;-65
2023/05/27 03:58:57;;;;;;;15.50;5.00;;;;;;;7.33;77.08;101706.07;105462;1258;71789;-63
2023/05/27 04:01:48;;;;;;;17.20;6.30;;;;;;;7.38;76.82;101703.80;105251;1254;69294;-60
2023/05/27 04:04:28;;;;;;;17.80;5.40;;;;;;;7.42;76.77;101703.27;105273;1254;69170;-61
2023/05/27 04:07:16;;;;;;;15.30;5.80;;;;;;;7.43;76.67;101703.25;105256;1256;75752;-63
2023/05/27 04:10:07;;;;;;;18.90;5.50;;;;;;;7.46;76.78;101708.65;105440;1254;83528;-62
2023/05/27 04:12:48;;;;;;;15.20;5.20;;;;;;;7.51;76.85;101707.92;105511;1257;73775;-63
2023/05/27 04:15:29;;;;;;;18.90;5.30;;;;;;;7.56;76.93;101710.88;105428;1258;69283;-63
2023/05/27 04:18:04;;;;;;;15.10;5.40;;;;;;;7.65;77.27;101720.73;105497;1254;69201;-61
2023/05/27 04:20:50;;;;;;;14.80;5.50;;;;;;;7.73;77.65;101720.55;105462;1254;73890;-65
2023/05/27 04:23:31;;;;;;;14.10;4.70;;;;;;;7.79;77.38;101719.82;105423;1254;83503;-61
2023/05/27 04:26:08;;;;;;;19.10;5.20;;;;;;;7.86;77.43;101719.63;105444;1254;73768;-61
2023/05/27 04:28:45;;;;;;;19.40;5.60;;;;;;;7.92;77.26;101721.15;105523;1254;69109;-57
2023/05/27 04:31:15;;;;;;;15.20;5.40;;;;;;;7.97;77.17;101718.16;105630;1256;69189;-60
2023/05/27 04:33:51;;;;;;;15.00;5.30;;;;;;;8.03;77.17;101721.63;105442;1254;74911;-60
2023/05/27 04:36:22;;;;;;;14.90;4.70;;;;;;;8.07;77.11;101724.90;105572;1254;82566;-60
2023/05/27 04:39:02;;;;;;;16.80;5.70;;;;;;;8.13;77.33;101725.92;105406;1257;73720;-60
2023/05/27 04:41:32;;;;;;;15.60;5.30;;;;;;;8.19;77.21;101730.41;105510;1257;69324;-60
2023/05/27 04:44:21;;;;;;;17.20;4.70;;;;;;;8.27;77.23;101731.75;105563;1253;69141;-59
2023/05/27 04:46:51;;;;;;;15.60;5.00;;;;;;;8.34;77.30;101738.16;105771;1257;73365;-60
2023/05/27 04:49:20;;;;;;;15.40;4.90;;;;;;;8.40;76.93;101736.92;105675;1257;82553;-60
2023/05/27 04:51:49;;;;;;;17.10;5.70;;;;;;;8.47;77.19;101735.83;105473;1256;72334;-60
2023/05/27 04:54:21;;;;;;;17.40;5.50;;;;;;;8.55;77.19;101731.24;105567;1253;69196;-59
2023/05/27 04:56:51;;;;;;;16.50;5.30;;;;;;;8.63;77.01;101734.86;105809;1254;69176;-60
2023/05/27 04:59:46;;;;;;;12.70;5.30;;;;;;;8.69;76.85;101737.07;105794;1253;72970;-59
2023/05/27 05:02:25;;;;;;;16.10;5.50;;;;;;;8.76;77.15;101734.73;105557;1254;82801;-60
2023/05/27 05:05:02;;;;;;;15.10;5.10;;;;;;;8.83;77.02;101740.96;105625;1254;73514;-60
2023/05/27 05:07:32;;;;;;;14.10;5.10;;;;;;;8.88;77.08;101741.45;105594;1254;69131;-60
2023/05/27 05:10:03;;;;;;;15.00;5.20;;;;;;;8.96;76.82;101739.80;105524;1257;69310;-59
2023/05/27 05:12:35;;;;;;;18.90;5.50;;;;;;;9.04;77.25;101739.73;105635;1254;74886;-60
2023/05/27 05:15:05;;;;;;;14.50;5.50;;;;;;;9.13;77.12;101741.05;105733;1256;83822;-60
2023/05/27 05:17:37;;;;;;;15.70;5.70;;;;;;;9.21;76.93;101741.66;105663;1257;74175;-60
2023/05/27 05:20:08;;;;;;;15.30;5.80;;;;;;;9.28;76.80;101743.34;105719;1253;69224;-60
2023/05/27 05:22:37;;;;;;;15.30;5.50;;;;;;;9.36;76.83;101741.86;105590;1254;69169;-60
2023/05/27 05:25:11;;;;;;;12.60;5.40;;;;;;;9.45;76.76;101741.77;105672;1254;73840;-60
2023/05/27 05:27:46;;;;;;;17.10;5.90;;;;;;;9.54;76.57;101737.65;105686;1253;83156;-61
2023/05/27 05:30:15;;;;;;;15.80;5.10;;;;;;;9.61;76.39;101742.64;105567;1254;73857;-60
2023/05/27 05:32:44;;;;;;;19.60;5.80;;;;;;;9.66;76.13;101746.23;105523;1257;69310;-59
2023/05/27 05:35:14;;;;;;;16.80;6.30;;;;;;;9.69;76.10;101748.11;105412;1254;69191;-59
2023/05/27 05:37:47;;;;;;;15.20;5.00;;;;;;;9.71;75.86;101748.10;105340;1257;75020;-61
2023/05/27 05:40:16;;;;;;;14.60;5.90;;;;;;;9.75;75.99;101744.91;105490;1253;82899;-59
2023/05/27 05:42:54;;;;;;;18.90;6.40;;;;;;;9.81;76.03;101748.15;105704;1254;73601;-58
2023/05/27 05:45:25;;;;;;;14.40;5.40;;;;;;;9.87;75.79;101746.15;105586;1254;69150;-59
2023/05/27 05:47:54;;;;;;;16.70;5.50;;;;;;;9.91;75.61;101748.73;105687;1253;69134;-59
2023/05/27 05:50:24;;;;;;;16.40;5.60;;;;;;;9.97;75.52;101752.66;105630;1254;74463;-60
2023/05/27 05:52:53;;;;;;;19.30;5.90;;;;;;;10.00;75.55;101754.54;105694;1255;82359;-59
2023/05/27 05:55:22;;;;;;;16.90;5.30;;;;;;;10.05;75.13;101753.44;105355;1254;259418;-59
2023/05/27 05:57:51;;;;;;;13.40;5.30;;;;;;;10.11;75.37;101753.88;105773;1257;69159;-58
2023/05/27 06:00:20;;;;;;;16.50;5.30;;;;;;;10.21;75.53;101757.41;105555;1257;69147;-59
2023/05/27 06:02:48;;;;;;;16.70;5.60;;;;;;;10.31;75.56;101755.56;105559;1254;75668;-59
2023/05/27 06:05:36;;;;;;;13.30;5.60;;;;;;;10.38;75.19;101758.08;105591;1256;83695;-57
2023/05/27 06:08:05;;;;;;;17.30;5.70;;;;;;;10.42;74.89;101757.48;105534;1254;72485;-58
2023/05/27 06:10:37;;;;;;;20.90;5.20;;;;;;;10.47;74.96;101756.89;105680;1254;69220;-58
2023/05/27 06:13:06;;;;;;;14.50;5.10;;;;;;;10.57;74.97;101758.83;105710;1254;69077;-57
2023/05/27 06:15:35;;;;;;;16.30;5.00;;;;;;;10.67;74.95;101752.05;105872;1256;75030;-57
2023/05/27 06:18:04;;;;;;;14.40;5.40;;;;;;;10.77;74.50;101755.89;105491;1257;83653;-55
2023/05/27 06:20:33;;;;;;;13.30;5.10;;;;;;;10.86;74.29;101755.05;105573;1254;72654;-58
2023/05/27 06:23:02;;;;;;;12.70;4.30;;;;;;;10.96;74.28;101752.63;105486;1254;69192;-55
2023/05/27 06:25:50;;;;;;;12.90;4.50;;;;;;;11.10;74.20;101756.40;105612;1256;69236;-56
2023/05/27 06:28:18;;;;;;;15.10;4.80;;;;;;;11.23;74.09;101757.58;105615;1254;75518;-57
2023/05/27 06:30:47;;;;;;;13.00;4.90;;;;;;;11.35;73.90;101755.44;105747;1254;83315;-58
2023/05/27 06:33:17;;;;;;;14.70;4.70;;;;;;;11.46;73.43;101758.02;105746;1254;72681;-57
2023/05/27 06:35:46;;;;;;;10.20;3.80;;;;;;;11.57;73.46;101761.48;105559;1254;69071;-57
2023/05/27 06:38:14;;;;;;;14.70;4.90;;;;;;;11.71;73.52;101759.09;105569;1256;69138;-57
2023/05/27 06:40:43;;;;;;;14.30;4.30;;;;;;;11.87;72.89;101761.44;105670;1254;74831;-57
2023/05/27 06:43:12;;;;;;;12.60;4.60;;;;;;;11.98;72.32;101762.63;105675;1256;83133;-56
2023/05/27 06:45:55;;;;;;;12.10;3.70;;;;;;;12.09;71.94;101760.27;105459;1254;72198;-58
2023/05/27 06:48:49;;;;;;;9.80;3.30;;;;;;;12.25;71.49;101757.11;105594;1253;69203;-57
2023/05/27 06:51:18;;;;;;;8.00;3.10;;;;;;;12.39;70.54;101754.36;105796;1254;69097;-56
2023/05/27 06:53:47;;;;;;;7.40;2.40;;;;;;;12.50;69.97;101753.56;105740;1252;74652;-57
2023/05/27 06:56:20;;;;;;;9.20;2.50;;;;;;;12.62;69.68;101755.91;105605;1256;82400;-57
2023/05/27 06:59:08;;;;;;;11.40;2.60;;;;;;;12.77;69.02;101753.80;105574;1254;73753;-58
2023/05/27 07:01:37;;;;;;;9.50;2.60;;;;;;;12.89;67.93;101749.83;105567;1254;69217;-57
2023/05/27 07:04:09;;;;;;;8.90;2.60;;;;;;;12.98;67.03;101752.05;105663;1257;69309;-59
2023/05/27 07:06:46;;;;;;;7.50;2.50;;;;;;;13.11;66.85;101747.14;105408;1254;74968;-59
2023/05/27 07:09:15;;;;;;;6.90;2.60;;;;;;;13.25;66.11;101745.40;105497;1257;81703;-59
2023/05/27 07:11:44;;;;;;;6.70;2.30;;;;;;;13.36;65.50;101746.85;105731;1254;73561;-58
2023/05/27 07:14:16;;;;;;;7.10;2.30;;;;;;;13.47;65.28;101748.68;105818;1254;69186;-59
2023/05/27 07:16:45;;;;;;;6.00;2.40;;;;;;;13.54;64.73;101744.44;105570;1256;69080;-59
2023/05/27 07:19:14;;;;;;;8.20;2.80;;;;;;;13.64;64.96;101744.70;107738;1253;74795;-55
2023/05/27 07:21:48;;;;;;;9.70;3.20;;;;;;;13.76;64.08;101747.87;105639;1254;83420;-58
2023/05/27 07:24:19;;;;;;;9.40;2.90;;;;;;;13.83;63.66;101745.20;105567;1253;73829;-60
2023/05/27 07:26:48;;;;;;;6.40;2.30;;;;;;;13.90;63.27;101745.19;105480;1254;69171;-61
2023/05/27 07:29:17;;;;;;;12.00;3.30;;;;;;;13.97;62.80;101738.45;105603;1254;69185;-64
2023/05/27 07:32:06;;;;;;;5.40;2.20;;;;;;;14.03;62.06;101738.98;105481;1254;75905;-61
2023/05/27 07:34:35;;;;;;;7.70;2.50;;;;;;;14.06;61.36;101737.50;105522;1254;82555;-61
2023/05/27 07:37:04;;;;;;;8.20;2.50;;;;;;;14.15;61.42;101736.37;105506;1257;73139;-61
2023/05/27 07:39:32;;;;;;;8.70;2.60;;;;;;;14.24;61.19;101740.10;105644;1253;69324;-62
2023/05/27 07:42:01;;;;;;;7.40;2.50;;;;;;;14.34;60.77;101738.39;105509;1254;69205;-61
2023/05/27 07:44:30;;;;;;;10.70;2.10;;;;;;;14.42;60.72;101735.66;105631;1254;74887;-62
2023/05/27 07:47:01;;;;;;;5.60;1.90;;;;;;;14.54;60.03;101732.69;105490;1254;83585;-62
2023/05/27 07:49:30;;;;;;;9.30;2.90;;;;;;;14.59;59.69;101732.16;105530;1257;73839;-60
2023/05/27 07:52:19;;;;;;;4.30;1.70;;;;;;;14.72;59.47;101731.05;105427;1256;69207;-62
2023/05/27 07:54:48;;;;;;;7.40;2.40;;;;;;;14.86;59.24;101726.88;105591;1254;69218;-61
2023/05/27 07:57:24;;;;;;;5.30;1.90;;;;;;;15.02;59.20;101727.59;105663;1253;73829;-62
2023/05/27 07:59:53;;;;;;;9.40;2.40;;;;;;;15.15;58.35;101722.70;105538;1256;82564;-62
2023/05/27 08:02:25;;;;;;;7.00;2.20;;;;;;;15.18;57.93;101721.20;105465;1253;74230;-63
2023/05/27 08:04:55;;;;;;;6.80;2.50;;;;;;;15.21;57.61;101720.73;105611;1252;69058;-61
2023/05/27 08:07:36;;;;;;;6.30;2.70;;;;;;;15.32;57.54;101717.89;105573;1253;69178;-62
2023/05/27 08:10:31;;;;;;;7.70;2.40;;;;;;;15.44;56.71;101710.08;105501;1254;74333;-65
2023/05/27 08:13:17;;;;;;;37.90;4.30;;;;;;;15.48;56.55;101706.39;105579;1256;83479;-61
2023/05/27 08:15:59;;;;;;;8.40;2.40;;;;;;;15.59;56.38;101706.50;105535;1256;72772;-65
2023/05/27 08:18:44;;;;;;;5.90;2.10;;;;;;;15.75;56.12;101704.88;105527;1254;69237;-66
2023/05/27 08:21:25;;;;;;;8.70;2.30;;;;;;;15.88;55.83;101703.89;105533;1252;69120;-62
2023/05/27 08:24:21;;;;;;;10.00;2.80;;;;;;;15.95;54.75;101698.65;105472;1257;73129;-65
2023/05/27 08:27:05;;;;;;;7.90;2.70;;;;;;;16.07;55.31;101697.14;105534;1257;83894;-62
2023/05/27 08:29:40;;;;;;;7.00;2.80;;;;;;;16.27;55.15;101696.34;105537;1256;73414;-62
2023/05/27 08:32:28;;;;;;;7.30;2.40;;;;;;;16.35;54.09;101689.30;105444;1254;69124;-62
2023/05/27 08:34:57;;;;;;;8.80;3.10;;;;;;;16.38;53.84;101686.91;105571;1254;69119;-61
2023/05/27 08:37:26;;;;;;;9.00;3.10;;;;;;;16.44;53.79;101683.84;105588;1256;73941;-61
2023/05/27 08:39:57;;;;;;;9.40;3.30;;;;;;;16.58;53.75;101684.52;105620;1256;83237;-61
2023/05/27 08:42:41;;;;;;;7.70;2.60;;;;;;;16.69;53.09;101681.21;105557;1256;73531;-63
2023/05/27 08:45:12;;;;;;;9.70;3.50;;;;;;;16.71;53.06;101682.70;105542;1254;69061;-61
2023/05/27 08:47:41;;;;;;;10.80;3.40;;;;;;;16.84;53.18;101685.02;105614;1252;69032;-65
2023/05/27 08:50:15;;;;;;;10.80;3.00;;;;;;;16.94;53.07;101684.23;105532;1254;74898;-63
2023/05/27 08:52:53;;;;;;;10.40;3.10;;;;;;;17.04;52.68;101682.91;105529;1257;83445;-60
2023/05/27 08:55:23;;;;;;;11.90;4.20;;;;;;;17.08;52.49;101677.60;105608;1254;72654;-63
2023/05/27 08:57:58;;;;;;;10.30;3.20;;;;;;;17.18;52.35;101678.09;105448;1254;70351;-61
2023/05/27 09:00:30;;;;;;;8.10;2.80;;;;;;;17.26;51.69;101670.99;105566;1252;69154;-63
2023/05/27 09:03:13;;;;;;;9.10;3.00;;;;;;;17.23;51.22;101669.56;105510;1254;74854;-63
2023/05/27 09:05:42;;;;;;;12.00;3.40;;;;;;;17.25;51.55;101668.39;105452;1252;83782;-63
2023/05/27 09:08:10;;;;;;;11.60;3.20;;;;;;;17.37;51.84;101668.36;105521;1257;72813;-62
2023/05/27 09:10:40;;;;;;;13.40;3.60;;;;;;;17.54;51.72;101667.42;105551;1252;69237;-62
2023/05/27 09:13:09;;;;;;;12.70;3.20;;;;;;;17.68;51.42;101662.36;105569;1254;69882;-63
2023/05/27 09:15:37;;;;;;;12.30;3.40;;;;;;;17.84;51.59;101660.73;105596;1254;74974;-62
2023/05/27 09:18:06;;;;;;;14.70;4.10;;;;;;;18.03;51.73;101662.16;105608;1256;83079;-62
2023/05/27 09:20:35;;;;;;;12.00;3.70;;;;;;;18.16;50.80;101656.90;105597;1254;73635;-61
2023/05/27 09:23:04;;;;;;;11.60;3.60;;;;;;;18.18;50.44;101657.38;105493;1257;69764;-63
2023/05/27 09:25:32;;;;;;;10.20;3.50;;;;;;;18.21;49.96;101656.84;105592;1252;69261;-65
2023/05/27 09:28:04;;;;;;;10.40;3.70;;;;;;;18.18;49.66;101657.90;105587;1254;74680;-63
2023/05/27 09:30:33;;;;;;;20.40;4.90;;;;;;;18.26;49.96;101656.27;105541;1253;83502;-65
2023/05/27 09:33:06;;;;;;;12.30;3.80;;;;;;;18.45;50.06;101653.90;105584;1254;73912;-64
2023/05/27 09:35:39;;;;;;;11.30;4.00;;;;;;;18.66;50.14;101656.94;105577;1253;69180;-61
2023/05/27 09:38:08;;;;;;;16.50;4.50;;;;;;;18.83;49.60;101660.67;105576;1256;69234;-62
2023/05/27 09:40:37;;;;;;;11.90;4.10;;;;;;;19.01;49.09;101660.48;105573;1257;73891;-66
2023/05/27 09:43:06;;;;;;;12.20;4.10;;;;;;;19.08;48.43;101657.77;105578;1257;83540;-62
2023/05/27 09:45:35;;;;;;;12.90;4.10;;;;;;;19.08;48.00;101654.05;105595;1253;72819;-63
2023/05/27 09:48:04;;;;;;;11.50;3.90;;;;;;;19.12;47.63;101650.84;105512;1254;69214;-62
2023/05/27 09:50:34;;;;;;;8.70;3.50;;;;;;;19.17;47.56;101646.16;105606;1253;69301;-63
2023/05/27 09:53:03;;;;;;;10.80;3.50;;;;;;;19.31;47.16;101648.94;105537;1256;74372;-65
2023/05/27 09:55:42;;;;;;;11.00;4.00;;;;;;;19.40;47.07;101647.36;105541;1257;83227;-62
2023/05/27 09:58:12;;;;;;;12.00;3.50;;;;;;;19.58;47.36;101646.44;105574;1257;71854;-63
2023/05/27 10:00:41;;;;;;;9.50;3.30;;;;;;;19.81;47.01;101647.33;105563;1253;69192;-62
2023/05/27 10:03:10;;;;;;;10.80;3.80;;;;;;;19.98;46.24;101646.16;105651;1256;69208;-63
2023/05/27 10:05:40;;;;;;;11.90;3.40;;;;;;;20.10;45.79;101643.35;105617;1254;74870;-61
2023/05/27 10:08:08;;;;;;;11.40;3.80;;;;;;;20.31;45.34;101639.83;105548;1257;83435;-62
2023/05/27 10:10:52;;;;;;;10.40;3.70;;;;;;;20.40;44.86;101641.42;105512;1256;72843;-61
2023/05/27 10:13:23;;;;;;;11.40;3.70;;;;;;;20.52;44.96;101642.50;105575;1254;69636;-65
2023/05/27 10:15:52;;;;;;;8.30;3.30;;;;;;;20.72;44.60;101638.88;105549;1254;69176;-65
2023/05/27 10:18:30;;;;;;;9.20;3.40;;;;;;;20.90;44.42;101635.85;105622;1256;75059;-63
2023/05/27 10:21:03;;;;;;;11.00;3.30;;;;;;;21.14;43.92;101631.34;105553;1256;83524;-62
2023/05/27 10:23:32;;;;;;;10.50;3.50;;;;;;;21.32;43.54;101632.88;105566;1254;73904;-65
2023/05/27 10:26:07;;;;;;;11.00;3.60;;;;;;;21.46;42.99;101632.05;105492;1253;69189;-64
2023/05/27 10:28:39;;;;;;;10.30;4.10;;;;;;;21.69;42.83;101628.45;105574;1256;69268;-61
2023/05/27 10:31:08;;;;;;;9.70;3.30;;;;;;;21.86;41.85;101623.96;105523;1254;74803;-62
2023/05/27 10:33:46;;;;;;;8.70;3.20;;;;;;;21.99;41.61;101622.39;105547;1256;84230;-62
2023/05/27 10:36:17;;;;;;;8.80;3.30;;;;;;;22.13;40.82;101615.97;105621;1256;73642;-64
2023/05/27 10:39:00;;;;;;;9.90;3.90;;;;;;;22.32;41.18;101615.61;105527;1253;69135;-63
2023/05/27 10:41:35;;;;;;;9.80;3.00;;;;;;;22.70;40.63;101612.28;105558;1254;69089;-62
2023/05/27 10:44:04;;;;;;;7.90;3.20;;;;;;;23.00;40.42;101614.69;105521;1254;74586;-62
2023/05/27 10:46:43;;;;;;;9.60;3.10;;;;;;;23.30;40.17;101623.27;105590;1254;82439;-61
2023/05/27 10:49:35;;;;;;;10.00;3.30;;;;;;;23.54;39.66;101615.29;105568;1254;72454;-64
2023/05/27 10:52:12;;;;;;;9.90;3.10;;;;;;;23.75;39.27;101612.70;105477;1256;69199;-61
2023/05/27 10:54:42;;;;;;;7.90;3.20;;;;;;;23.79;38.77;101608.84;105531;1253;69503;-64
2023/05/27 10:57:11;;;;;;;10.30;3.60;;;;;;;23.88;38.62;101606.48;105530;1255;75035;-64
2023/05/27 10:59:55;;;;;;;8.20;3.30;;;;;;;23.90;38.24;101604.67;105554;1256;83034;-63
2023/05/27 11:02:34;;;;;;;9.40;3.00;;;;;;;24.03;37.66;101607.44;105496;1254;73761;-66
2023/05/27 11:05:11;;;;;;;6.20;2.70;;;;;;;24.27;37.49;101613.00;105553;1256;69077;-64
2023/05/27 11:07:40;;;;;;;7.80;2.80;;;;;;;24.52;37.08;101609.15;105501;1254;69116;-62
2023/05/27 11:10:09;;;;;;;6.60;2.70;;;;;;;24.63;36.53;101604.85;105605;1254;74445;-64
2023/05/27 11:12:37;;;;;;;6.40;2.70;;;;;;;24.73;35.76;101605.76;105511;1255;82905;-62
2023/05/27 11:15:06;;;;;;;6.60;2.60;;;;;;;24.56;34.99;101599.75;105522;1256;72767;-66
2023/05/27 11:17:34;;;;;;;7.50;2.70;;;;;;;24.70;35.68;101598.64;105590;1254;69178;-64
2023/05/27 11:20:05;;;;;;;7.70;2.90;;;;;;;24.96;35.89;101597.66;105502;1254;69040;-62
2023/05/27 11:22:37;;;;;;;7.60;3.00;;;;;;;25.03;35.74;101597.46;105571;1256;73867;-64
2023/05/27 11:25:06;;;;;;;;;;;;;;;25.23;35.23;101597.69;105672;1256;83558;-64
2023/05/27 11:27:35;;;;;;;;;;;;;;;25.49;35.04;101596.66;105576;1254;73170;-63
2023/05/27 11:30:11;;;;;;;;;;;;;;;25.68;34.54;101595.16;105652;1256;69205;-65
2023/05/27 11:32:41;;;;;;;7.40;2.90;;;;;;;25.88;34.45;101597.42;105629;1254;69081;-61
2023/05/27 11:35:17;;;;;;;6.80;2.40;;;;;;;26.00;34.17;101593.07;105532;1257;75261;-63
2023/05/27 11:37:50;;;;;;;5.40;2.60;;;;;;;26.18;33.94;101589.80;105548;1253;83229;-66
2023/05/27 11:40:20;;;;;;;7.50;2.70;;;;;;;26.36;33.67;101585.77;105515;1254;72831;-62
2023/05/27 11:42:49;;;;;;;8.70;2.80;;;;;;;26.38;33.37;101578.55;105572;1253;69075;-60
2023/05/27 11:45:19;;;;;;;6.10;2.60;;;;;;;26.22;33.04;101578.67;105576;1254;69202;-62
2023/05/27 11:47:53;;;;;;;6.20;2.50;;;;;;;26.28;33.10;101574.09;105579;1254;75537;-61
2023/05/27 11:50:22;;;;;;;5.80;2.60;;;;;;;26.35;33.25;101571.16;105614;1253;82077;-61
2023/05/27 11:52:52;;;;;;;5.40;2.40;;;;;;;26.55;32.87;101573.55;105607;1252;72174;-61
2023/05/27 11:55:23;;;;;;;7.90;2.40;;;;;;;26.78;32.67;101567.44;105552;1252;69213;-61